Time;durP1;ratioP1;P1;durP2;ratioP2;P2;SDS_P1;SDS_P2;PMS_P1;PMS_P2;Temp;Humidity;BMP_temperature;BMP_pressure;BME280_temperature;BME280_humidity;BME280_pressure;Samples;Min_cycle;Max_cycle;Signal;HPM_P1;HPM_P2
2023/05/23 00:00:58;;;;;;;;;;;;;;;18.65;69.69;99658.81;4440124;32;34351;-81
2023/05/23 00:03:26;;;;;;;;;;;;;;;18.88;68.40;99644.19;4436591;32;34186;-81
2023/05/23 00:05:55;;;;;;;;;;;;;;;18.24;70.90;99651.37;4438040;32;32994;-81
2023/05/23 00:08:22;;;;;;;;;;;;;;;18.06;72.12;99651.19;4421244;32;32960;-81
2023/05/23 00:10:50;;;;;;;;;;;;;;;18.25;71.43;99650.53;4435965;32;34330;-81
2023/05/23 00:13:17;;;;;;;;;;;;;;;18.54;69.68;99644.69;4438406;32;34632;-81
2023/05/23 00:15:45;;;;;;;7.22;4.05;;;;;;;18.63;69.51;99641.31;4437150;32;33284;-81
2023/05/23 00:18:15;;;;;;;;;;;;;;;18.47;69.86;99649.03;4422911;32;33609;-81
2023/05/23 00:20:42;;;;;;;;;;;;;;;17.98;71.78;99642.34;4438706;32;34724;-81
2023/05/23 00:23:12;;;;;;;;;;;;;;;17.69;73.02;99645.44;4424618;32;34538;-81
2023/05/23 00:25:40;;;;;;;;;;;;;;;18.96;68.63;99638.13;4438707;32;33433;-81
2023/05/23 00:28:07;;;;;;;;;;;;;;;18.44;69.39;99648.97;4431118;32;34892;-81
2023/05/23 00:30:35;;;;;;;;;;;;;;;18.23;70.63;99644.41;4424210;32;33431;-81
2023/05/23 00:33:02;;;;;;;;;;;;;;;18.39;70.22;99650.69;4437158;32;34545;-81
2023/05/23 00:35:30;;;;;;;;;;;;;;;18.74;68.53;99636.16;4437702;32;33273;-81
2023/05/23 00:37:57;;;;;;;;;;;;;;;17.95;71.36;99642.31;4444182;32;33747;-81
2023/05/23 00:40:24;;;;;;;6.80;3.97;;;;;;;18.15;71.20;99646.03;4437796;32;34084;-81
2023/05/23 00:42:52;;;;;;;7.12;4.35;;;;;;;19.29;66.55;99636.63;4437809;32;33651;-81
2023/05/23 00:45:20;;;;;;;6.75;3.70;;;;;;;19.24;66.20;99638.34;4438227;32;33773;-81
2023/05/23 00:47:48;;;;;;;7.20;3.90;;;;;;;18.21;69.84;99640.84;4441834;32;32824;-81
2023/05/23 00:50:15;;;;;;;7.62;3.70;;;;;;;18.15;70.40;99646.03;4437888;32;34759;-81
2023/05/23 00:52:43;;;;;;;;;;;;;;;18.36;69.29;99655.03;4423950;32;32588;-81
2023/05/23 00:55:11;;;;;;;;;;;;;;;17.88;70.96;99652.69;4423399;32;33058;-81
2023/05/23 00:57:43;;;;;;;;;;;;;;;18.31;69.69;99652.34;4438064;32;33740;-81
2023/05/23 01:00:11;;;;;;;;;;;;;;;17.58;72.08;99647.91;4424208;32;33988;-81
2023/05/23 01:02:43;;;;;;;8.10;3.85;;;;;;;17.63;73.04;99647.97;4437762;32;35664;-81
2023/05/23 01:05:16;;;;;;;9.60;4.12;;;;;;;17.79;72.12;99647.31;4437167;32;35041;-81
2023/05/23 01:07:48;;;;;;;6.82;4.22;;;;;;;17.34;74.05;99647.56;4432410;32;34348;-81
2023/05/23 01:10:18;;;;;;;7.68;4.68;;;;;;;16.86;76.18;99650.31;4437126;32;33559;-81
2023/05/23 01:13:20;;;;;;;7.75;4.15;;;;;;;16.83;76.37;99649.38;4438215;32;34191;-81
2023/05/23 01:16:12;;;;;;;8.73;4.22;;;;;;;16.21;79.25;99650.81;4421744;32;33626;-81
2023/05/23 01:18:57;;;;;;;7.07;4.03;;;;;;;16.61;77.53;99648.97;4426308;32;34109;-81
2023/05/23 01:21:25;;;;;;;6.43;3.28;;;;;;;17.97;72.34;99637.97;4449301;32;34900;-81
2023/05/23 01:24:05;;;;;;;6.68;3.55;;;;;;;20.08;63.34;99635.31;4436277;32;34223;-81
2023/05/23 01:27:05;;;;;;;7.40;3.70;;;;;;;20.25;61.52;99632.75;4438149;32;33693;-81
2023/05/23 01:29:36;;;;;;;7.90;3.72;;;;;;;20.76;60.58;99630.22;4431977;32;33398;-81
2023/05/23 01:32:07;;;;;;;6.55;3.45;;;;;;;18.85;66.22;99629.28;4432511;32;34784;-81
2023/05/23 01:34:35;;;;;;;5.82;3.45;;;;;;;18.94;67.33;99628.50;4427576;32;33757;-81
2023/05/23 01:37:08;;;;;;;5.62;3.60;;;;;;;20.16;61.77;99617.78;4434901;32;33486;-81
2023/05/23 01:39:37;;;;;;;7.50;4.30;;;;;;;17.71;70.52;99627.97;4440390;32;33862;-81
2023/05/23 01:42:05;;;;;;;7.40;4.15;;;;;;;17.15;73.29;99625.44;4437738;32;33952;-81
2023/05/23 01:44:34;;;;;;;9.70;4.40;;;;;;;17.06;74.01;99624.47;4428901;32;34819;-81
2023/05/23 01:47:02;;;;;;;6.70;4.20;;;;;;;17.29;73.50;99613.47;4426229;32;34480;-81
2023/05/23 01:49:31;;;;;;;8.25;4.32;;;;;;;16.80;75.86;99620.50;4444097;32;34596;-81
2023/05/23 01:52:00;;;;;;;8.07;4.43;;;;;;;16.38;78.26;99625.00;4424906;32;32917;-81
2023/05/23 01:54:28;;;;;;;9.00;4.43;;;;;;;16.07;79.81;99618.31;4442221;32;33567;-81
2023/05/23 01:56:56;;;;;;;8.25;4.20;;;;;;;16.11;79.79;99625.38;4440627;32;33518;-81
2023/05/23 01:59:24;;;;;;;9.32;4.15;;;;;;;15.95;80.72;99618.06;4434182;32;34244;-81
2023/05/23 02:01:52;;;;;;;7.78;4.28;;;;;;;15.95;80.84;99618.06;4422665;32;34020;-82
2023/05/23 02:04:20;;;;;;;9.18;4.07;;;;;;;16.17;79.71;99615.03;4422529;32;34228;-81
2023/05/23 02:06:48;;;;;;;6.00;3.62;;;;;;;16.33;78.73;99615.31;4432180;32;33381;-82
2023/05/23 02:09:16;;;;;;;8.85;4.10;;;;;;;16.68;77.20;99603.75;4436545;32;34419;-82
2023/05/23 02:11:45;;;;;;;9.25;4.85;;;;;;;16.93;76.02;99606.78;4435232;32;33610;-82
2023/05/23 02:14:12;;;;;;;8.20;4.70;;;;;;;16.80;76.41;99604.81;4444944;32;34504;-82
2023/05/23 02:16:40;;;;;;;11.27;4.22;;;;;;;17.00;75.07;99606.03;4441659;32;33559;-82
2023/05/23 02:19:07;;;;;;;7.53;3.92;;;;;;;16.83;75.80;99613.63;4435047;32;33980;-82
2023/05/23 02:21:37;;;;;;;7.28;3.83;;;;;;;16.22;78.12;99613.37;4435002;32;35001;-82
2023/05/23 02:24:04;;;;;;;9.43;4.25;;;;;;;16.19;78.63;99613.34;4441750;32;34573;-82
2023/05/23 02:26:32;;;;;;;7.12;4.32;;;;;;;16.29;78.12;99614.38;4433274;32;33858;-83
2023/05/23 02:28:59;;;;;;;8.52;4.53;;;;;;;16.67;76.24;99612.47;4434875;32;34494;-82
2023/05/23 02:31:27;;;;;;;5.93;3.90;;;;;;;17.06;74.96;99603.53;4445808;32;33305;-82
2023/05/23 02:33:55;;;;;;;8.98;4.45;;;;;;;16.75;75.59;99606.47;4447286;32;33923;-82
2023/05/23 02:36:25;;;;;;;7.50;4.45;;;;;;;16.75;75.70;99607.34;4437231;32;35150;-82
2023/05/23 02:38:53;;;;;;;8.68;4.80;;;;;;;17.22;74.49;99596.78;4431795;32;33861;-81
2023/05/23 02:41:21;;;;;;;7.60;4.70;;;;;;;17.30;73.46;99599.50;4416269;32;33185;-81
2023/05/23 02:43:49;;;;;;;;;;;;;;;16.91;74.84;99608.50;4437122;32;34149;-81
2023/05/23 02:46:16;;;;;;;;;;;;;;;16.57;76.72;99602.66;4441265;32;33562;-81
2023/05/23 02:48:44;;;;;;;;;;;;;;;17.13;73.98;99601.00;4437018;32;33808;-81
2023/05/23 02:51:14;;;;;;;;;;;;;;;16.56;76.19;99608.78;4430193;32;35918;-81
2023/05/23 02:53:42;;;;;;;;;;;;;;;17.48;72.11;99599.78;4434613;32;33884;-82
2023/05/23 02:56:12;;;;;;;;;;;;;;;19.16;65.60;99595.38;4438621;32;33799;-81
2023/05/23 02:58:39;;;;;;;;;;;;;;;18.79;66.61;99603.81;4438746;32;35010;-82
2023/05/23 03:01:07;;;;;;;8.27;4.03;;;;;;;19.56;63.94;99593.88;4437023;32;33810;-81
2023/05/23 03:03:35;;;;;;;6.03;3.95;;;;;;;21.59;55.85;99588.00;4438345;32;34031;-81
2023/05/23 03:06:06;;;;;;;6.18;3.45;;;;;;;21.16;56.71;99588.06;4438255;32;33426;-81
2023/05/23 03:08:33;;;;;;;;;;;;;;;20.16;59.47;99591.50;4438178;32;32898;-82
2023/05/23 03:11:01;;;;;;;;;;;;;;;19.11;63.13;99584.88;4438964;32;34598;-81
2023/05/23 03:13:29;;;;;;;;;;;;;;;18.50;64.98;99594.84;4438997;32;35189;-82
2023/05/23 03:15:56;;;;;;;;;;;;;;;17.54;69.88;99598.97;4426505;32;33532;-81
2023/05/23 03:18:23;;;;;;;;;;;;;;;17.72;70.08;99587.84;4441235;32;34181;-82
2023/05/23 03:20:51;;;;;;;;;;;;;;;18.13;68.83;99605.81;4438318;32;34622;-82
2023/05/23 03:23:21;;;;;;;;;;;;;;;18.15;68.86;99606.72;4438844;32;34004;-81
2023/05/23 03:25:48;;;;;;;;;;;;;;;18.35;68.11;99611.28;4438897;32;34366;-82
2023/05/23 03:28:16;;;;;;;;;;;;;;;18.13;69.48;99613.69;4442544;32;34112;-81
2023/05/23 03:30:44;;;;;;;;;;;;;;;18.22;68.86;99611.16;4438631;32;34817;-81
2023/05/23 03:33:12;;;;;;;;;;;;;;;18.10;68.82;99616.28;4438687;32;35040;-81
2023/05/23 03:35:39;;;;;;;;;;;;;;;17.59;70.88;99601.66;4438663;32;34271;-81
2023/05/23 03:38:07;;;;;;;;;;;;;;;17.98;69.57;99600.41;4450784;32;33267;-81
2023/05/23 03:40:34;;;;;;;;;;;;;;;18.26;67.83;99602.47;4424723;32;33193;-81
2023/05/23 03:43:03;;;;;;;;;;;;;;;18.65;66.64;99595.84;4445410;32;34120;-82
2023/05/23 03:45:31;;;;;;;;;;;;;;;18.78;66.04;99596.84;4435116;32;33618;-81
2023/05/23 03:48:01;;;;;;;;;;;;;;;18.79;66.07;99600.34;4438939;32;34086;-80
2023/05/23 03:50:29;;;;;;;;;;;;;;;18.38;67.45;99606.09;4438604;32;34782;-82
2023/05/23 03:52:56;;;;;;;;;;;;;;;17.92;69.66;99602.97;4412152;32;34308;-82
2023/05/23 03:55:24;;;;;;;;;;;;;;;17.70;70.08;99607.91;4438703;32;32820;-82
2023/05/23 03:57:51;;;;;;;;;;;;;;;17.13;72.93;99611.47;4438383;32;35134;-82
2023/05/23 04:00:19;;;;;;;;;;;;;;;17.28;72.80;99601.22;4441589;32;33739;-81
2023/05/23 04:02:50;;;;;;;;;;;;;;;19.20;65.66;99595.44;4438214;32;35214;-81
2023/05/23 04:05:18;;;;;;;;;;;;;;;19.01;65.54;99593.56;4433515;32;33347;-81
2023/05/23 04:07:48;;;;;;;;;;;;;;;18.47;67.38;99600.94;4438628;32;33759;-82
2023/05/23 04:10:15;;;;;;;;;;;;;;;18.51;67.53;99602.72;4421846;32;34249;-81
2023/05/23 04:12:43;;;;;;;;;;;;;;;18.65;67.40;99606.34;4429920;32;34360;-82
2023/05/23 04:15:11;;;;;;;;;;;;;;;20.04;62.25;99596.72;4438274;32;33369;-82
2023/05/23 04:17:40;;;;;;;;;;;;;;;19.86;63.17;99601.91;4438427;32;35011;-81
2023/05/23 04:20:11;;;;;;;;;;;;;;;18.92;65.60;99599.59;4440449;32;34596;-82
2023/05/23 04:22:40;;;;;;;;;;;;;;;17.99;69.80;99603.03;4438087;32;34515;-81
2023/05/23 04:25:08;;;;;;;;;;;;;;;17.78;70.90;99603.63;4437451;32;33627;-81
2023/05/23 04:27:38;;;;;;;8.35;4.53;;;;;;;18.13;69.45;99608.44;4434656;32;34053;-81
2023/05/23 04:30:08;;;;;;;;;;;;;;;17.85;71.11;99605.50;4424345;32;34712;-81
2023/05/23 04:32:37;;;;;;;;;;;;;;;17.82;71.40;99605.44;4438366;32;35401;-81
2023/05/23 04:35:05;;;;;;;;;;;;;;;17.84;71.73;99590.63;4438838;32;33153;-81
2023/05/23 04:37:36;;;;;;;;;;;;;;;19.04;67.20;99588.31;4424347;32;32286;-82
2023/05/23 04:40:04;;;;;;;;;;;;;;;18.41;69.58;99600.88;4438517;32;35055;-82
2023/05/23 04:42:32;;;;;;;;;;;;;;;18.47;69.66;99606.19;4438709;32;34305;-82
2023/05/23 04:45:02;;;;;;;;;;;;;;;18.81;68.75;99603.88;4438490;32;34103;-81
2023/05/23 04:47:33;;;;;;;8.70;4.62;;;;;;;19.54;65.91;99605.25;4426473;32;33213;-81
2023/05/23 04:50:04;;;;;;;9.63;4.90;;;;;;;19.20;67.32;99599.78;4436212;32;34495;-81
2023/05/23 04:52:32;;;;;;;7.60;4.20;;;;;;;18.74;68.95;99604.69;4440523;32;33710;-82
2023/05/23 04:55:01;;;;;;;11.18;4.60;;;;;;;18.71;69.17;99602.88;4446199;32;33529;-81
2023/05/23 04:57:29;;;;;;;10.55;4.80;;;;;;;18.65;69.62;99598.47;4437569;32;34606;-82
2023/05/23 04:59:56;;;;;;;9.77;5.03;;;;;;;19.10;68.01;99603.22;4437907;32;33649;-81
2023/05/23 05:02:25;;;;;;;9.43;5.10;;;;;;;19.12;68.17;99591.84;4441951;32;33906;-81
2023/05/23 05:04:53;;;;;;;9.82;5.00;;;;;;;19.62;66.94;99603.53;4437538;32;32353;-81
2023/05/23 05:07:21;;;;;;;10.00;5.20;;;;;;;19.93;65.73;99598.44;4437464;32;33941;-82
2023/05/23 05:09:49;;;;;;;9.15;4.28;;;;;;;20.21;65.55;99595.03;4437242;32;34219;-81
2023/05/23 05:12:17;;;;;;;9.00;5.30;;;;;;;21.17;61.89;99597.72;4423067;32;32486;-82
2023/05/23 05:14:44;;;;;;;9.73;5.00;;;;;;;20.64;62.92;99593.38;4434210;32;33684;-82
2023/05/23 05:17:12;;;;;;;8.85;4.47;;;;;;;20.25;64.31;99595.03;4432094;32;33924;-82
2023/05/23 05:19:41;;;;;;;13.45;6.50;;;;;;;21.70;59.78;99596.75;4435365;32;33683;-82
2023/05/23 05:22:08;;;;;;;9.13;4.97;;;;;;;22.94;55.99;99587.19;4437875;32;34085;-82
2023/05/23 05:24:36;;;;;;;9.45;5.20;;;;;;;24.51;51.05;99587.13;4437502;32;34094;-82
2023/05/23 05:27:04;;;;;;;10.90;4.78;;;;;;;23.92;52.71;99585.28;4438455;32;34102;-82
2023/05/23 05:29:32;;;;;;;7.62;4.22;;;;;;;24.66;50.92;99586.88;4441310;32;35050;-82
2023/05/23 05:32:00;;;;;;;11.40;4.85;;;;;;;23.57;54.06;99588.34;4444993;32;34794;-82
2023/05/23 05:34:28;;;;;;;8.15;4.43;;;;;;;24.65;51.20;99589.56;4440185;32;33318;-82
2023/05/23 05:36:56;;;;;;;8.95;4.95;;;;;;;25.99;48.02;99593.28;4437942;32;33643;-81
2023/05/23 05:39:25;;;;;;;6.62;4.25;;;;;;;25.18;49.79;99593.06;4437914;32;35165;-82
2023/05/23 05:41:53;;;;;;;9.10;5.07;;;;;;;25.58;49.04;99584.38;4437778;32;33956;-82
2023/05/23 05:44:21;;;;;;;8.95;4.65;;;;;;;25.59;48.61;99594.06;4439685;32;33600;-82
2023/05/23 05:46:50;;;;;;;8.88;4.82;;;;;;;24.68;51.19;99586.84;4429577;32;32040;-82
2023/05/23 05:49:18;;;;;;;7.07;4.50;;;;;;;24.39;51.05;99588.16;4437582;32;34044;-82
2023/05/23 05:51:46;;;;;;;11.93;5.87;;;;;;;23.95;52.25;99587.00;4437403;32;33341;-82
2023/05/23 05:54:13;;;;;;;;;;;;;;;23.75;53.23;99589.87;4436476;32;34447;-82
2023/05/23 05:56:42;;;;;;;;;;;;;;;23.03;54.35;99590.69;4437866;32;34109;-82
2023/05/23 05:59:09;;;;;;;;;;;;;;;24.90;50.21;99582.97;4438173;32;34426;-82
2023/05/23 06:01:37;;;;;;;;;;;;;;;24.56;51.45;99587.06;4437777;32;35263;-82
2023/05/23 06:04:05;;;;;;;;;;;;;;;25.14;49.60;99585.19;4437931;32;33312;-82
2023/05/23 06:06:33;;;;;;;;;;;;;;;25.00;50.15;99583.66;4437679;32;34131;-82
2023/05/23 06:09:00;;;;;;;;;;;;;;;25.82;49.03;99579.47;4439346;32;34285;-81
2023/05/23 06:11:28;;;;;;;;;;;;;;;26.16;47.82;99584.09;4441063;32;35138;-74
2023/05/23 06:13:58;;;;;;;;;;;;;;;26.00;48.38;99587.09;4424733;32;31555;-82
2023/05/23 06:16:25;;;;;;;;;;;;;;;26.77;46.91;99577.34;4447658;32;34171;-82
2023/05/23 06:18:54;;;;;;;;;;;;;;;27.17;45.70;99576.28;4440477;32;33487;-82
2023/05/23 06:21:22;;;;;;;;;;;;;;;25.62;50.01;99575.47;4437000;32;33672;-83
2023/05/23 06:23:51;;;;;;;;;;;;;;;26.21;48.64;99579.53;4435857;32;33529;-82
2023/05/23 06:26:18;;;;;;;;;;;;;;;27.17;45.89;99575.44;4437441;32;33811;-81
2023/05/23 06:28:45;;;;;;;;;;;;;;;25.51;48.49;99580.09;4438192;32;34226;-82
2023/05/23 06:31:13;;;;;;;7.40;4.05;;;;;;;27.03;45.73;99571.34;4433712;32;34801;-82
2023/05/23 06:33:41;;;;;;;9.25;5.20;;;;;;;26.87;45.87;99568.22;4438725;32;34504;-83
2023/05/23 06:36:10;;;;;;;10.02;4.80;;;;;;;26.16;47.82;99584.09;4438410;32;33607;-83
2023/05/23 06:38:37;;;;;;;8.88;4.30;;;;;;;26.35;47.62;99569.47;4441331;32;33806;-82
2023/05/23 06:41:06;;;;;;;9.02;4.32;;;;;;;26.02;47.88;99587.91;4439672;32;34832;-83
2023/05/23 06:43:33;;;;;;;;;;;;;;;26.74;46.70;99572.09;4445199;32;33257;-83
2023/05/23 06:46:01;;;;;;;;;;;;;;;26.93;46.31;99571.66;4442246;32;34457;-83
2023/05/23 06:48:30;;;;;;;;;;;;;;;28.12;43.57;99569.22;4443272;32;34870;-82
2023/05/23 06:50:57;;;;;;;;;;;;;;;27.07;46.18;99569.50;4451028;32;34761;-82
2023/05/23 06:53:25;;;;;;;;;;;;;;;28.53;42.67;99569.72;4450765;32;33085;-83
2023/05/23 06:55:53;;;;;;;;;;;;;;;28.06;43.93;99567.59;4439752;32;34187;-83
2023/05/23 06:58:21;;;;;;;6.32;3.67;;;;;;;28.77;41.47;99558.25;4439228;32;34044;-84
2023/05/23 07:00:48;;;;;;;9.35;3.90;;;;;;;28.62;41.32;99556.09;4434664;32;34049;-82
2023/05/23 07:03:17;;;;;;;7.05;3.67;;;;;;;28.53;42.40;99567.94;4436463;32;33691;-83
2023/05/23 07:05:45;;;;;;;8.35;4.55;;;;;;;27.61;43.85;99560.91;4423536;32;33028;-83
2023/05/23 07:08:14;;;;;;;7.97;3.80;;;;;;;27.82;43.47;99566.53;4448282;32;33542;-84
2023/05/23 07:10:43;;;;;;;;;;;;;;;29.21;40.55;99561.19;4423529;32;32529;-83
2023/05/23 07:13:13;;;;;;;7.80;4.18;;;;;;;28.17;43.48;99560.16;4437835;32;34230;-83
2023/05/23 07:15:41;;;;;;;5.93;3.97;;;;;;;29.26;41.37;99558.34;4442028;32;34407;-82
2023/05/23 07:18:10;;;;;;;6.75;4.28;;;;;;;29.62;39.54;99554.41;4437532;32;33923;-81
2023/05/23 07:20:37;;;;;;;8.10;4.62;;;;;;;29.48;40.14;99547.78;4446519;32;33624;-82
2023/05/23 07:23:08;;;;;;;9.43;4.15;;;;;;;30.71;37.84;99543.00;4442855;32;33952;-82
2023/05/23 07:25:36;;;;;;;;;;;;;;;31.05;36.98;99538.88;4443696;32;34591;-82
2023/05/23 07:28:09;;;;;;;;;;;;;;;32.89;34.44;99541.84;4425132;32;32199;-82
2023/05/23 07:30:37;;;;;;;;;;;;;;;33.80;32.74;99546.00;4438636;32;35342;-82
2023/05/23 07:33:05;;;;;;;;;;;;;;;34.89;30.23;99536.22;4438256;32;34121;-81
2023/05/23 07:35:32;;;;;;;;;;;;;;;35.05;29.70;99537.00;4436616;32;34109;-82
2023/05/23 07:38:01;;;;;;;;;;;;;;;35.75;29.15;99536.31;4437996;32;34122;-82
2023/05/23 07:40:28;;;;;;;;;;;;;;;36.83;27.75;99534.66;4437810;32;35131;-83
2023/05/23 07:42:56;;;;;;;;;;;;;;;36.80;27.84;99534.91;4438549;32;32956;-83
2023/05/23 07:45:23;;;;;;;;;;;;;;;38.44;25.20;99530.41;4437599;32;33469;-82
2023/05/23 07:47:51;;;;;;;;;;;;;;;38.06;25.91;99531.41;4439119;32;34099;-82
2023/05/23 07:50:19;;;;;;;;;;;;;;;38.59;25.22;99532.94;4450026;32;34331;-82
2023/05/23 07:52:50;;;;;;;;;;;;;;;38.96;25.00;99527.41;4433185;32;33686;-82
2023/05/23 07:55:20;;;;;;;;;;;;;;;39.13;25.25;99529.69;4438404;32;34328;-84
2023/05/23 07:57:48;;;;;;;;;;;;;;;38.19;25.66;99530.50;4436722;32;33884;-82
2023/05/23 08:00:16;;;;;;;;;;;;;;;39.51;24.47;99521.25;4428564;32;34690;-82
2023/05/23 08:02:43;;;;;;;;;;;;;;;38.99;24.50;99513.66;4438645;32;33571;-82
2023/05/23 08:05:12;;;;;;;;;;;;;;;39.52;24.28;99516.69;4438652;32;33185;-82
2023/05/23 08:07:39;;;;;;;;;;;;;;;39.05;25.01;99518.59;4440131;32;34201;-81
2023/05/23 08:10:08;;;;;;;;;;;;;;;38.01;25.18;99520.03;4438782;32;33947;-81
2023/05/23 08:12:37;;;;;;;;;;;;;;;37.71;25.74;99515.94;4440505;32;33590;-82
2023/05/23 08:15:05;;;;;;;;;;;;;;;37.87;25.00;99517.50;4446332;32;34184;-82
2023/05/23 08:17:33;;;;;;;;;;;;;;;38.79;24.29;99510.63;4443830;32;34997;-82
2023/05/23 08:20:03;;;;;;;;;;;;;;;37.73;25.54;99518.53;4440113;32;33085;-82
2023/05/23 08:22:31;;;;;;;;;;;;;;;37.64;26.00;99516.47;4435120;32;33291;-81
2023/05/23 08:24:58;;;;;;;;;;;;;;;32.81;31.31;99515.44;4441786;32;34214;-83
2023/05/23 08:27:26;;;;;;;;;;;;;;;32.30;33.75;99515.28;4423812;32;32314;-82
2023/05/23 08:29:54;;;;;;;;;;;;;;;34.91;29.53;99512.78;4438318;32;34484;-82
2023/05/23 08:32:22;;;;;;;;;;;;;;;36.03;28.33;99516.53;4437618;32;33871;-82
2023/05/23 08:34:50;;;;;;;8.15;4.90;;;;;;;36.13;27.35;99516.81;4437878;32;34225;-82
2023/05/23 08:37:18;;;;;;;;;;;;;;;36.00;27.96;99507.78;4437531;32;33917;-82
2023/05/23 08:39:45;;;;;;;;;;;;;;;33.43;30.92;99514.91;4430455;32;34451;-83
2023/05/23 08:42:14;;;;;;;6.65;4.55;;;;;;;32.79;32.12;99521.81;4437665;32;33675;-82
2023/05/23 08:44:42;;;;;;;8.20;4.10;;;;;;;32.60;32.37;99514.72;4437803;32;33629;-82
2023/05/23 08:47:11;;;;;;;8.95;5.03;;;;;;;33.59;32.10;99515.81;4438037;32;34295;-81
2023/05/23 08:49:40;;;;;;;8.88;5.12;;;;;;;31.21;36.52;99511.44;4437604;32;33511;-82
2023/05/23 08:52:11;;;;;;;10.82;4.72;;;;;;;30.90;38.44;99520.81;4436908;32;34296;-82
2023/05/23 08:54:41;;;;;;;7.40;4.78;;;;;;;32.04;35.46;99513.00;4438102;32;34647;-82
2023/05/23 08:57:10;;;;;;;;;;;;;;;30.57;38.91;99518.63;4432037;32;33512;-81
2023/05/23 08:59:38;;;;;;;9.70;4.85;;;;;;;28.96;39.77;99528.31;4438024;32;34950;-82
2023/05/23 09:02:11;;;;;;;7.37;4.55;;;;;;;29.50;38.85;99524.59;4443188;32;33724;-82
2023/05/23 09:04:38;;;;;;;10.50;5.43;;;;;;;30.47;37.58;99518.16;4449230;32;33724;-83
2023/05/23 09:07:07;;;;;;;;;;;;;;;31.13;34.88;99518.00;4440885;32;34003;-81
2023/05/23 09:09:35;;;;;;;;;;;;;;;32.81;33.17;99520.78;4426733;32;33756;-82
2023/05/23 09:12:03;;;;;;;;;;;;;;;32.09;34.27;99519.03;4441570;32;32891;-83
2023/05/23 09:14:32;;;;;;;;;;;;;;;33.80;32.02;99523.63;4440679;32;33787;-83
2023/05/23 09:17:00;;;;;;;;;;;;;;;30.78;34.37;99522.19;4438535;32;34890;-82
2023/05/23 09:19:32;;;;;;;;;;;;;;;29.60;38.84;99525.97;4439876;32;33659;-82
2023/05/23 09:22:01;;;;;;;9.90;4.65;;;;;;;30.97;35.13;99516.97;4437461;32;33674;-82
2023/05/23 09:24:35;;;;;;;8.23;4.35;;;;;;;29.66;36.15;99524.00;4436161;32;34525;-81
2023/05/23 09:27:06;;;;;;;10.45;5.03;;;;;;;29.50;37.80;99524.59;4423322;32;33301;-81
2023/05/23 09:29:38;;;;;;;;;;;;;;;30.10;36.60;99519.63;4437877;32;36877;-82
2023/05/23 09:32:19;;;;;;;;;;;;;;;30.45;40.62;99506.66;4437013;32;33324;-82
2023/05/23 09:34:49;;;;;;;;;;;;;;;29.49;36.70;99521.97;4437036;32;33934;-81
2023/05/23 09:37:18;;;;;;;;;;;;;;;30.31;36.85;99523.25;4433933;32;33745;-82
2023/05/23 09:39:46;;;;;;;;;;;;;;;30.25;35.62;99518.16;4437853;32;34431;-81
2023/05/23 09:42:21;;;;;;;;;;;;;;;29.56;37.94;99529.69;4423762;32;32506;-82
2023/05/23 09:44:49;;;;;;;;;;;;;;;29.25;38.99;99518.41;4437966;32;34725;-82
2023/05/23 09:47:16;;;;;;;;;;;;;;;30.12;34.29;99519.56;4438092;32;33775;-82
2023/05/23 09:49:44;;;;;;;;;;;;;;;31.83;33.13;99509.50;4437258;32;33933;-82
2023/05/23 09:52:12;;;;;;;;;;;;;;;33.00;32.17;99506.44;4429032;32;33339;-82
2023/05/23 09:54:39;;;;;;;;;;;;;;;32.25;33.87;99506.59;4428176;32;32866;-82
2023/05/23 09:57:08;;;;;;;;;;;;;;;30.33;38.41;99508.03;4436143;32;34372;-82
2023/05/23 09:59:37;;;;;;;;;;;;;;;30.35;39.02;99516.84;4423223;32;34140;-82
2023/05/23 10:02:05;;;;;;;;;;;;;;;29.81;37.72;99510.09;4428563;32;33477;-82
2023/05/23 10:04:33;;;;;;;;;;;;;;;32.46;32.38;99509.16;4442900;32;34242;-82
2023/05/23 10:07:04;;;;;;;;;;;;;;;30.69;35.68;99507.41;4442346;32;33990;-83
2023/05/23 10:09:32;;;;;;;;;;;;;;;30.26;37.67;99502.97;4433536;32;33987;-83
2023/05/23 10:12:18;;;;;;;;;;;;;;;29.68;37.03;99516.81;4437709;32;33397;-82
2023/05/23 10:14:48;;;;;;;;;;;;;;;31.80;33.27;99499.81;4438935;32;34013;-83
2023/05/23 10:17:20;;;;;;;;;;;;;;;31.19;35.91;99499.94;4425175;32;34115;-84
2023/05/23 10:19:51;;;;;;;;;;;;;;;30.22;38.81;99496.88;4424780;32;34952;-84
2023/05/23 10:22:19;;;;;;;;;;;;;;;30.25;37.14;99491.44;4429748;32;33595;-83
2023/05/23 10:24:47;;;;;;;;;;;;;;;30.14;36.20;99493.66;4424033;32;33738;-85
2023/05/23 10:27:14;;;;;;;;;;;;;;;29.48;38.02;99481.06;4421689;32;34925;-84
2023/05/23 10:29:42;;;;;;;;;;;;;;;29.44;38.78;99492.78;4427749;32;34093;-84
2023/05/23 10:32:09;;;;;;;;;;;;;;;30.05;37.04;99489.53;4424264;32;33603;-84
2023/05/23 10:34:43;;;;;;;;;;;;;;;30.75;36.24;99480.44;4433264;32;33763;-84
2023/05/23 10:37:11;;;;;;;;;;;;;;;30.98;37.01;99481.22;4439659;32;34826;-84
2023/05/23 10:39:43;;;;;;;;;;;;;;;30.16;34.48;99483.78;4423614;32;34393;-83
2023/05/23 10:42:12;;;;;;;;;;;;;;;30.04;35.51;99481.59;4435193;32;34264;-83
2023/05/23 10:44:39;;;;;;;;;;;;;;;29.93;36.66;99482.91;4422758;32;35073;-83
2023/05/23 10:47:07;;;;;;;;;;;;;;;30.50;38.01;99485.06;4436831;32;34589;-83
2023/05/23 10:49:45;;;;;;;;;;;;;;;31.45;33.84;99477.38;4443171;32;34652;-84
2023/05/23 10:52:13;;;;;;;;;;;;;;;32.13;35.18;99475.91;4436426;32;33722;-84
2023/05/23 10:54:42;;;;;;;;;;;;;;;31.22;36.58;99471.25;4443717;32;33803;-84
2023/05/23 10:57:09;;;;;;;;;;;;;;;31.01;36.07;99470.41;4434975;32;35671;-84
2023/05/23 10:59:40;;;;;;;;;;;;;;;29.94;36.31;99475.75;4442534;32;33696;-83
2023/05/23 11:02:10;;;;;;;;;;;;;;;29.44;37.64;99476.78;4443251;32;31936;-83
2023/05/23 11:04:38;;;;;;;;;;;;;;;28.30;39.19;99470.09;4427330;32;33330;-83
2023/05/23 11:07:05;;;;;;;;;;;;;;;28.25;39.97;99461.38;4421940;32;34940;-85
2023/05/23 11:09:32;;;;;;;;;;;;;;;29.42;38.17;99462.63;4418239;32;33423;-83
2023/05/23 11:12:04;;;;;;;;;;;;;;;29.40;40.40;99464.50;4423282;32;33392;-84
2023/05/23 11:14:36;;;;;;;;;;;;;;;30.30;38.68;99454.69;4439979;32;34273;-84
2023/05/23 11:17:24;;;;;;;7.75;4.35;;;;;;;28.30;41.94;99462.09;4433410;32;34164;-84
2023/05/23 11:20:08;;;;;;;8.45;5.28;;;;;;;27.87;40.48;99450.13;4417902;32;35043;-83
2023/05/23 11:22:36;;;;;;;;;;;;;;;28.41;40.62;99445.75;4429005;32;33887;-83
2023/05/23 11:25:10;;;;;;;7.43;4.03;;;;;;;28.71;37.99;99448.31;4435672;32;33856;-82
2023/05/23 11:27:45;;;;;;;7.32;4.43;;;;;;;28.86;38.08;99449.53;4431533;32;32657;-84
2023/05/23 11:30:16;;;;;;;5.85;3.58;;;;;;;28.91;36.64;99444.94;4434240;32;33649;-81
2023/05/23 11:32:52;;;;;;;9.32;4.18;;;;;;;28.58;35.28;99448.72;4432061;32;33675;-81
2023/05/23 11:35:20;;;;;;;6.37;4.10;;;;;;;29.72;34.20;99438.34;4441036;32;34173;-82
2023/05/23 11:37:48;;;;;;;;;;;;;;;31.59;32.01;99425.88;4437849;32;33572;-82
2023/05/23 11:40:31;;;;;;;;;;;;;;;30.31;33.37;99426.19;4442151;32;34875;-84
2023/05/23 11:42:59;;;;;;;;;;;;;;;30.41;32.59;99432.03;4437030;32;33437;-81
2023/05/23 11:45:27;;;;;;;;;;;;;;;30.85;32.97;99416.72;4424136;32;33914;-83
2023/05/23 11:47:54;;;;;;;;;;;;;;;31.16;32.86;99415.34;4436957;32;34801;-84
2023/05/23 11:50:25;;;;;;;;;;;;;;;29.96;34.26;99415.13;4430324;32;34451;-83
2023/05/23 11:52:56;;;;;;;;;;;;;;;30.66;31.51;99411.31;4438080;32;32651;-85
2023/05/23 11:55:23;;;;;;;;;;;;;;;30.68;33.41;99414.78;4438578;32;33205;-87
2023/05/23 11:57:50;;;;;;;;;;;;;;;29.65;33.84;99399.47;4437691;32;34921;-84
2023/05/23 12:00:18;;;;;;;;;;;;;;;30.28;34.38;99389.75;4442162;32;34083;-84
2023/05/23 12:02:49;;;;;;;;;;;;;;;30.10;34.62;99393.22;4442477;32;33422;-82
2023/05/23 12:05:16;;;;;;;;;;;;;;;30.37;31.95;99386.72;4442531;32;33814;-85
2023/05/23 12:07:45;;;;;;;;;;;;;;;29.66;35.56;99374.53;4439089;32;34272;-85
2023/05/23 12:10:15;;;;;;;;;;;;;;;29.35;35.67;99378.41;4411922;32;33769;-82
2023/05/23 12:12:43;;;;;;;;;;;;;;;29.35;34.77;99381.09;4432491;32;33648;-82
2023/05/23 12:15:11;;;;;;;;;;;;;;;29.77;34.90;99372.34;4431429;32;34046;-83
2023/05/23 12:17:42;;;;;;;;;;;;;;;29.73;34.51;99366.25;4436740;32;34953;-82
2023/05/23 12:20:10;;;;;;;;;;;;;;;30.14;34.42;99366.31;4435062;32;34953;-84
2023/05/23 12:22:37;;;;;;;;;;;;;;;29.02;35.85;99363.63;4412624;32;33703;-83
2023/05/23 12:25:07;;;;;;;;;;;;;;;29.15;36.82;99369.41;4434846;32;33556;-83
2023/05/23 12:27:35;;;;;;;;;;;;;;;30.42;34.30;99364.28;4437187;32;34129;-83